sensor_id;sensor_type;location;lat;lon;timestamp;pressure;altitude;pressure_sealevel;temperature;humidity
10946;BME280;5525;42.648;23.368;2023-11-21T00:01:02;94557.47;;;4.99;100.00
10946;BME280;5525;42.648;23.368;2023-11-21T00:03:30;94559.31;;;4.99;100.00
10946;BME280;5525;42.648;23.368;2023-11-21T00:05:57;94561.09;;;4.71;100.00
10946;BME280;5525;42.648;23.368;2023-11-21T00:08:24;94558.63;;;4.56;100.00
10946;BME280;5525;42.648;23.368;2023-11-21T00:10:51;94567.06;;;4.45;100.00
10946;BME280;5525;42.648;23.368;2023-11-21T00:13:17;94560.72;;;4.41;100.00
10946;BME280;5525;42.648;23.368;2023-11-21T00:15:44;94559.63;;;4.42;100.00
10946;BME280;5525;42.648;23.368;2023-11-21T00:18:11;94554.03;;;4.38;100.00
10946;BME280;5525;42.648;23.368;2023-11-21T00:20:39;94556.00;;;4.33;100.00
10946;BME280;5525;42.648;23.368;2023-11-21T00:23:06;94557.59;;;4.34;100.00
10946;BME280;5525;42.648;23.368;2023-11-21T00:25:34;94556.13;;;4.41;100.00
10946;BME280;5525;42.648;23.368;2023-11-21T00:28:01;94555.59;;;4.44;100.00
10946;BME280;5525;42.648;23.368;2023-11-21T00:30:28;94553.69;;;4.45;100.00
10946;BME280;5525;42.648;23.368;2023-11-21T00:32:56;94556.44;;;4.40;100.00
10946;BME280;5525;42.648;23.368;2023-11-21T00:35:23;94553.94;;;4.48;100.00
10946;BME280;5525;42.648;23.368;2023-11-21T00:37:51;94548.50;;;4.35;100.00
10946;BME280;5525;42.648;23.368;2023-11-21T00:40:18;94540.19;;;4.36;100.00
10946;BME280;5525;42.648;23.368;2023-11-21T00:42:46;94556.31;;;4.50;100.00
10946;BME280;5525;42.648;23.368;2023-11-21T00:45:13;94545.47;;;4.23;100.00
10946;BME280;5525;42.648;23.368;2023-11-21T00:47:40;94555.38;;;4.41;100.00
10946;BME280;5525;42.648;23.368;2023-11-21T00:50:08;94564.22;;;3.94;100.00
10946;BME280;5525;42.648;23.368;2023-11-21T00:52:36;94559.44;;;4.15;100.00
10946;BME280;5525;42.648;23.368;2023-11-21T00:55:05;94559.44;;;4.15;100.00
10946;BME280;5525;42.648;23.368;2023-11-21T00:57:33;94548.97;;;4.18;100.00
10946;BME280;5525;42.648;23.368;2023-11-21T00:59:59;94547.81;;;4.06;100.00
10946;BME280;5525;42.648;23.368;2023-11-21T01:02:26;94536.44;;;3.95;100.00
10946;BME280;5525;42.648;23.368;2023-11-21T01:04:54;94537.91;;;4.06;100.00
10946;BME280;5525;42.648;23.368;2023-11-21T01:07:21;94537.19;;;4.01;100.00
10946;BME280;5525;42.648;23.368;2023-11-21T01:09:48;94532.41;;;3.98;100.00
10946;BME280;5525;42.648;23.368;2023-11-21T01:12:16;94541.22;;;3.98;100.00
10946;BME280;5525;42.648;23.368;2023-11-21T01:14:43;94531.78;;;3.82;100.00
10946;BME280;5525;42.648;23.368;2023-11-21T01:17:10;94534.78;;;3.76;100.00
10946;BME280;5525;42.648;23.368;2023-11-21T01:19:37;94538.28;;;3.76;100.00
10946;BME280;5525;42.648;23.368;2023-11-21T01:22:04;94539.66;;;3.74;100.00
10946;BME280;5525;42.648;23.368;2023-11-21T01:24:30;94539.47;;;3.65;100.00
10946;BME280;5525;42.648;23.368;2023-11-21T01:26:57;94555.38;;;3.75;100.00
10946;BME280;5525;42.648;23.368;2023-11-21T01:29:25;94549.16;;;3.56;100.00
10946;BME280;5525;42.648;23.368;2023-11-21T01:31:53;94542.06;;;3.70;100.00
10946;BME280;5525;42.648;23.368;2023-11-21T01:34:20;94535.94;;;3.70;100.00
10946;BME280;5525;42.648;23.368;2023-11-21T01:36:47;94540.78;;;3.39;100.00
10946;BME280;5525;42.648;23.368;2023-11-21T01:39:13;94530.28;;;3.24;100.00
10946;BME280;5525;42.648;23.368;2023-11-21T01:41:41;94541.44;;;3.26;100.00
10946;BME280;5525;42.648;23.368;2023-11-21T01:44:09;94548.19;;;3.18;100.00
10946;BME280;5525;42.648;23.368;2023-11-21T01:46:38;94549.78;;;3.19;100.00
10946;BME280;5525;42.648;23.368;2023-11-21T01:49:05;94547.16;;;3.14;100.00
10946;BME280;5525;42.648;23.368;2023-11-21T01:51:32;94544.84;;;3.03;100.00
10946;BME280;5525;42.648;23.368;2023-11-21T01:53:59;94529.13;;;3.01;100.00
10946;BME280;5525;42.648;23.368;2023-11-21T01:56:27;94518.47;;;3.01;100.00
10946;BME280;5525;42.648;23.368;2023-11-21T01:58:56;94530.03;;;3.20;100.00
10946;BME280;5525;42.648;23.368;2023-11-21T02:01:23;94531.63;;;3.21;100.00
10946;BME280;5525;42.648;23.368;2023-11-21T02:03:52;94528.28;;;2.77;100.00
10946;BME280;5525;42.648;23.368;2023-11-21T02:06:19;94530.25;;;2.62;100.00
10946;BME280;5525;42.648;23.368;2023-11-21T02:08:47;94527.66;;;2.57;100.00
10946;BME280;5525;42.648;23.368;2023-11-21T02:11:14;94532.06;;;2.71;100.00
10946;BME280;5525;42.648;23.368;2023-11-21T02:13:41;94541.88;;;2.76;100.00
10946;BME280;5525;42.648;23.368;2023-11-21T02:16:09;94546.97;;;2.72;100.00
10946;BME280;5525;42.648;23.368;2023-11-21T02:18:38;94545.56;;;2.80;100.00
10946;BME280;5525;42.648;23.368;2023-11-21T02:21:06;94536.69;;;2.89;100.00
10946;BME280;5525;42.648;23.368;2023-11-21T02:23:34;94542.44;;;3.06;100.00
10946;BME280;5525;42.648;23.368;2023-11-21T02:26:01;94538.47;;;3.04;100.00
10946;BME280;5525;42.648;23.368;2023-11-21T02:28:29;94526.63;;;3.15;100.00
10946;BME280;5525;42.648;23.368;2023-11-21T02:30:55;94537.44;;;3.28;100.00
10946;BME280;5525;42.648;23.368;2023-11-21T02:33:24;94534.19;;;3.31;100.00
10946;BME280;5525;42.648;23.368;2023-11-21T02:35:51;94536.31;;;3.34;100.00
10946;BME280;5525;42.648;23.368;2023-11-21T02:38:20;94528.63;;;3.28;100.00
10946;BME280;5525;42.648;23.368;2023-11-21T02:40:48;94530.03;;;3.20;100.00
10946;BME280;5525;42.648;23.368;2023-11-21T02:43:15;94529.91;;;3.07;100.00
10946;BME280;5525;42.648;23.368;2023-11-21T02:45:42;94536.34;;;3.01;100.00
10946;BME280;5525;42.648;23.368;2023-11-21T02:48:08;94526.16;;;3.08;100.00
10946;BME280;5525;42.648;23.368;2023-11-21T02:50:35;94536.25;;;3.11;100.00
10946;BME280;5525;42.648;23.368;2023-11-21T02:53:03;94527.50;;;3.05;100.00
10946;BME280;5525;42.648;23.368;2023-11-21T02:55:31;94522.25;;;2.95;100.00
10946;BME280;5525;42.648;23.368;2023-11-21T02:58:02;94539.34;;;2.94;100.00
10946;BME280;5525;42.648;23.368;2023-11-21T03:00:29;94536.09;;;2.97;100.00
10946;BME280;5525;42.648;23.368;2023-11-21T03:02:56;94535.22;;;3.07;100.00
10946;BME280;5525;42.648;23.368;2023-11-21T03:05:23;94523.47;;;3.08;100.00
10946;BME280;5525;42.648;23.368;2023-11-21T03:07:50;94525.59;;;3.11;100.00
10946;BME280;5525;42.648;23.368;2023-11-21T03:10:16;94521.91;;;3.07;100.00
10946;BME280;5525;42.648;23.368;2023-11-21T03:12:44;94523.91;;;3.20;100.00
10946;BME280;5525;42.648;23.368;2023-11-21T03:15:13;94518.06;;;3.18;100.00
10946;BME280;5525;42.648;23.368;2023-11-21T03:17:40;94531.09;;;2.91;100.00
10946;BME280;5525;42.648;23.368;2023-11-21T03:20:08;94519.97;;;2.84;100.00
10946;BME280;5525;42.648;23.368;2023-11-21T03:22:36;94522.63;;;2.84;100.00
10946;BME280;5525;42.648;23.368;2023-11-21T03:25:04;94526.13;;;2.79;100.00
10946;BME280;5525;42.648;23.368;2023-11-21T03:27:31;94546.13;;;2.77;100.00
10946;BME280;5525;42.648;23.368;2023-11-21T03:29:58;94541.41;;;2.69;100.00
10946;BME280;5525;42.648;23.368;2023-11-21T03:32:26;94544.63;;;2.66;100.00
10946;BME280;5525;42.648;23.368;2023-11-21T03:34:54;94551.38;;;2.53;100.00
10946;BME280;5525;42.648;23.368;2023-11-21T03:37:22;94549.97;;;2.66;100.00
10946;BME280;5525;42.648;23.368;2023-11-21T03:39:48;94546.91;;;2.82;100.00
10946;BME280;5525;42.648;23.368;2023-11-21T03:42:15;94538.59;;;2.89;100.00
10946;BME280;5525;42.648;23.368;2023-11-21T03:44:42;94534.59;;;2.86;100.00
10946;BME280;5525;42.648;23.368;2023-11-21T03:47:09;94542.38;;;2.83;100.00
10946;BME280;5525;42.648;23.368;2023-11-21T03:49:37;94530.88;;;2.87;100.00
10946;BME280;5525;42.648;23.368;2023-11-21T03:52:05;94520.09;;;2.97;100.00
10946;BME280;5525;42.648;23.368;2023-11-21T03:54:33;94517.97;;;2.99;100.00
10946;BME280;5525;42.648;23.368;2023-11-21T03:57:00;94508.59;;;3.02;100.00
10946;BME280;5525;42.648;23.368;2023-11-21T03:59:26;94510.19;;;3.03;100.00
10946;BME280;5525;42.648;23.368;2023-11-21T04:01:55;94523.16;;;3.14;100.00
10946;BME280;5525;42.648;23.368;2023-11-21T04:04:22;94525.03;;;3.14;100.00
10946;BME280;5525;42.648;23.368;2023-11-21T04:06:50;94505.06;;;3.11;100.00
10946;BME280;5525;42.648;23.368;2023-11-21T04:09:18;94505.78;;;3.17;100.00
10946;BME280;5525;42.648;23.368;2023-11-21T04:11:45;94509.69;;;3.01;100.00
10946;BME280;5525;42.648;23.368;2023-11-21T04:14:12;94506.91;;;3.11;100.00
10946;BME280;5525;42.648;23.368;2023-11-21T04:16:40;94505.84;;;3.12;100.00
10946;BME280;5525;42.648;23.368;2023-11-21T04:19:07;94498.13;;;3.10;100.00
10946;BME280;5525;42.648;23.368;2023-11-21T04:21:35;94502.94;;;3.08;100.00
10946;BME280;5525;42.648;23.368;2023-11-21T04:24:04;94515.03;;;3.24;100.00
10946;BME280;5525;42.648;23.368;2023-11-21T04:26:31;94490.41;;;3.09;100.00
10946;BME280;5525;42.648;23.368;2023-11-21T04:28:58;94506.72;;;3.31;100.00
10946;BME280;5525;42.648;23.368;2023-11-21T04:31:25;94517.22;;;3.22;100.00
10946;BME280;5525;42.648;23.368;2023-11-21T04:33:52;94515.84;;;3.25;100.00
10946;BME280;5525;42.648;23.368;2023-11-21T04:36:19;94521.47;;;3.23;100.00
10946;BME280;5525;42.648;23.368;2023-11-21T04:38:46;94510.84;;;3.18;100.00
10946;BME280;5525;42.648;23.368;2023-11-21T04:41:14;94503.13;;;3.17;100.00
10946;BME280;5525;42.648;23.368;2023-11-21T04:43:41;94511.31;;;3.25;100.00
10946;BME280;5525;42.648;23.368;2023-11-21T04:46:08;94504.44;;;3.19;100.00
10946;BME280;5525;42.648;23.368;2023-11-21T04:48:35;94511.03;;;2.98;100.00
10946;BME280;5525;42.648;23.368;2023-11-21T04:51:02;94514.34;;;3.14;100.00
10946;BME280;5525;42.648;23.368;2023-11-21T04:53:29;94515.41;;;3.18;100.00
10946;BME280;5525;42.648;23.368;2023-11-21T04:55:56;94520.09;;;3.26;100.00
10946;BME280;5525;42.648;23.368;2023-11-21T04:58:24;94511.38;;;3.20;100.00
10946;BME280;5525;42.648;23.368;2023-11-21T05:00:51;94516.81;;;3.34;100.00
10946;BME280;5525;42.648;23.368;2023-11-21T05:03:17;94515.81;;;3.30;100.00
10946;BME280;5525;42.648;23.368;2023-11-21T05:05:43;94515.28;;;3.28;100.00
10946;BME280;5525;42.648;23.368;2023-11-21T05:08:10;94518.31;;;3.45;100.00
10946;BME280;5525;42.648;23.368;2023-11-21T05:10:37;94522.47;;;3.56;100.00
10946;BME280;5525;42.648;23.368;2023-11-21T05:13:04;94513.66;;;3.56;100.00
10946;BME280;5525;42.648;23.368;2023-11-21T05:15:36;94504.69;;;3.46;100.00
10946;BME280;5525;42.648;23.368;2023-11-21T05:18:04;94501.16;;;3.51;100.00
10946;BME280;5525;42.648;23.368;2023-11-21T05:20:30;94484.44;;;3.45;100.00
10946;BME280;5525;42.648;23.368;2023-11-21T05:22:58;94503.50;;;3.58;100.00
10946;BME280;5525;42.648;23.368;2023-11-21T05:25:25;94508.56;;;3.59;100.00
10946;BME280;5525;42.648;23.368;2023-11-21T05:27:52;94500.28;;;3.61;100.00
10946;BME280;5525;42.648;23.368;2023-11-21T05:30:20;94505.53;;;3.42;100.00
10946;BME280;5525;42.648;23.368;2023-11-21T05:32:49;94513.25;;;3.43;100.00
10946;BME280;5525;42.648;23.368;2023-11-21T05:35:16;94523.03;;;3.53;100.00
10946;BME280;5525;42.648;23.368;2023-11-21T05:37:43;94513.22;;;3.48;100.00
10946;BME280;5525;42.648;23.368;2023-11-21T05:40:11;94514.72;;;3.60;100.00
10946;BME280;5525;42.648;23.368;2023-11-21T05:42:39;94523.56;;;3.55;100.00
10946;BME280;5525;42.648;23.368;2023-11-21T05:45:06;94519.03;;;3.27;100.00
10946;BME280;5525;42.648;23.368;2023-11-21T05:47:36;94509.19;;;2.94;100.00
10946;BME280;5525;42.648;23.368;2023-11-21T05:50:07;94523.03;;;3.01;100.00
10946;BME280;5525;42.648;23.368;2023-11-21T05:52:39;94526.53;;;3.25;100.00
10946;BME280;5525;42.648;23.368;2023-11-21T05:55:06;94519.59;;;3.24;100.00
10946;BME280;5525;42.648;23.368;2023-11-21T05:57:33;94508.28;;;3.08;100.00
10946;BME280;5525;42.648;23.368;2023-11-21T06:00:03;94516.75;;;3.15;100.00
10946;BME280;5525;42.648;23.368;2023-11-21T06:02:36;94521.03;;;3.40;100.00
10946;BME280;5525;42.648;23.368;2023-11-21T06:05:06;94517.75;;;3.48;100.00
10946;BME280;5525;42.648;23.368;2023-11-21T06:07:33;94521.97;;;2.97;100.00
10946;BME280;5525;42.648;23.368;2023-11-21T06:10:01;94514.88;;;2.87;100.00
10946;BME280;5525;42.648;23.368;2023-11-21T06:12:32;94521.28;;;3.15;100.00
10946;BME280;5525;42.648;23.368;2023-11-21T06:15:01;94527.38;;;3.20;100.00
10946;BME280;5525;42.648;23.368;2023-11-21T06:17:29;94537.25;;;3.48;100.00
10946;BME280;5525;42.648;23.368;2023-11-21T06:19:56;94539.91;;;3.72;100.00
10946;BME280;5525;42.648;23.368;2023-11-21T06:22:24;94531.22;;;3.62;100.00
10946;BME280;5525;42.648;23.368;2023-11-21T06:24:51;94535.25;;;3.83;100.00
10946;BME280;5525;42.648;23.368;2023-11-21T06:27:17;94537.81;;;3.45;100.00
10946;BME280;5525;42.648;23.368;2023-11-21T06:29:44;94534.63;;;3.43;100.00
10946;BME280;5525;42.648;23.368;2023-11-21T06:32:12;94536.47;;;3.72;100.00
10946;BME280;5525;42.648;23.368;2023-11-21T06:34:41;94543.69;;;3.66;100.00
10946;BME280;5525;42.648;23.368;2023-11-21T06:37:08;94544.56;;;3.62;100.00
10946;BME280;5525;42.648;23.368;2023-11-21T06:39:36;94544.84;;;4.07;100.00
10946;BME280;5525;42.648;23.368;2023-11-21T06:42:03;94544.59;;;4.27;100.00
10946;BME280;5525;42.648;23.368;2023-11-21T06:44:30;94554.84;;;4.39;100.00
10946;BME280;5525;42.648;23.368;2023-11-21T06:46:58;94547.66;;;4.16;100.00
10946;BME280;5525;42.648;23.368;2023-11-21T06:49:25;94551.75;;;4.32;100.00
10946;BME280;5525;42.648;23.368;2023-11-21T06:51:52;94550.97;;;4.50;100.00
10946;BME280;5525;42.648;23.368;2023-11-21T06:54:20;94532.19;;;4.55;100.00
10946;BME280;5525;42.648;23.368;2023-11-21T06:56:49;94543.81;;;4.82;100.00
10946;BME280;5525;42.648;23.368;2023-11-21T06:59:16;94550.88;;;4.92;100.00
10946;BME280;5525;42.648;23.368;2023-11-21T07:01:42;94562.44;;;4.87;100.00
10946;BME280;5525;42.648;23.368;2023-11-21T07:04:09;94555.41;;;5.10;100.00
10946;BME280;5525;42.648;23.368;2023-11-21T07:06:36;94550.94;;;5.38;100.00
10946;BME280;5525;42.648;23.368;2023-11-21T07:09:03;94546.94;;;5.35;100.00
10946;BME280;5525;42.648;23.368;2023-11-21T07:11:30;94540.09;;;5.29;100.00
10946;BME280;5525;42.648;23.368;2023-11-21T07:13:59;94540.53;;;5.50;100.00
10946;BME280;5525;42.648;23.368;2023-11-21T07:16:28;94536.81;;;5.64;100.00
10946;BME280;5525;42.648;23.368;2023-11-21T07:18:56;94528.78;;;5.64;100.00
10946;BME280;5525;42.648;23.368;2023-11-21T07:21:22;94533.50;;;5.54;100.00
10946;BME280;5525;42.648;23.368;2023-11-21T07:23:49;94528.06;;;5.59;100.00
10946;BME280;5525;42.648;23.368;2023-11-21T07:26:17;94534.22;;;5.73;100.00
10946;BME280;5525;42.648;23.368;2023-11-21T07:28:43;94539.91;;;6.25;100.00
10946;BME280;5525;42.648;23.368;2023-11-21T07:31:12;94530.88;;;6.35;100.00
10946;BME280;5525;42.648;23.368;2023-11-21T07:33:39;94535.09;;;6.49;100.00
10946;BME280;5525;42.648;23.368;2023-11-21T07:36:07;94538.19;;;6.56;100.00
10946;BME280;5525;42.648;23.368;2023-11-21T07:38:34;94534.91;;;6.46;100.00
10946;BME280;5525;42.648;23.368;2023-11-21T07:41:00;94529.09;;;6.79;100.00
10946;BME280;5525;42.648;23.368;2023-11-21T07:43:28;94526.50;;;6.74;100.00
10946;BME280;5525;42.648;23.368;2023-11-21T07:46:00;94533.19;;;6.63;100.00
10946;BME280;5525;42.648;23.368;2023-11-21T07:48:29;94525.53;;;6.57;100.00
10946;BME280;5525;42.648;23.368;2023-11-21T07:50:56;94535.72;;;6.82;100.00
10946;BME280;5525;42.648;23.368;2023-11-21T07:53:23;94519.50;;;6.51;100.00
10946;BME280;5525;42.648;23.368;2023-11-21T07:55:50;94516.47;;;6.31;100.00
10946;BME280;5525;42.648;23.368;2023-11-21T07:58:17;94519.22;;;6.75;100.00
10946;BME280;5525;42.648;23.368;2023-11-21T08:00:45;94523.34;;;6.95;100.00
10946;BME280;5525;42.648;23.368;2023-11-21T08:03:13;94513.41;;;7.17;100.00
10946;BME280;5525;42.648;23.368;2023-11-21T08:05:42;94508.34;;;6.93;100.00
10946;BME280;5525;42.648;23.368;2023-11-21T08:08:10;94505.97;;;7.36;100.00
10946;BME280;5525;42.648;23.368;2023-11-21T08:10:37;94500.06;;;7.56;100.00
10946;BME280;5525;42.648;23.368;2023-11-21T08:13:04;94492.16;;;7.60;100.00
10946;BME280;5525;42.648;23.368;2023-11-21T08:15:31;94491.75;;;8.14;100.00
10946;BME280;5525;42.648;23.368;2023-11-21T08:17:58;94487.59;;;8.55;100.00
10946;BME280;5525;42.648;23.368;2023-11-21T08:20:25;94493.59;;;8.78;100.00
10946;BME280;5525;42.648;23.368;2023-11-21T08:22:53;94498.69;;;8.15;100.00
10946;BME280;5525;42.648;23.368;2023-11-21T08:25:22;94503.41;;;8.57;100.00
10946;BME280;5525;42.648;23.368;2023-11-21T08:27:49;94509.13;;;8.90;100.00
10946;BME280;5525;42.648;23.368;2023-11-21T08:30:16;94498.63;;;8.28;100.00
10946;BME280;5525;42.648;23.368;2023-11-21T08:32:44;94499.47;;;8.54;100.00
10946;BME280;5525;42.648;23.368;2023-11-21T08:35:12;94503.09;;;8.84;100.00
10946;BME280;5525;42.648;23.368;2023-11-21T08:37:39;94509.75;;;8.78;100.00
10946;BME280;5525;42.648;23.368;2023-11-21T08:40:08;94483.94;;;9.11;100.00
10946;BME280;5525;42.648;23.368;2023-11-21T08:42:37;94484.38;;;9.30;100.00
10946;BME280;5525;42.648;23.368;2023-11-21T08:45:06;94499.63;;;9.18;100.00
10946;BME280;5525;42.648;23.368;2023-11-21T08:47:34;94486.56;;;9.54;100.00
10946;BME280;5525;42.648;23.368;2023-11-21T08:50:02;94491.09;;;9.70;100.00
10946;BME280;5525;42.648;23.368;2023-11-21T08:52:29;94497.94;;;9.68;100.00
10946;BME280;5525;42.648;23.368;2023-11-21T08:54:56;94481.47;;;9.98;100.00
10946;BME280;5525;42.648;23.368;2023-11-21T08:57:26;94487.69;;;9.90;100.00
10946;BME280;5525;42.648;23.368;2023-11-21T08:59:54;94486.28;;;9.93;100.00
10946;BME280;5525;42.648;23.368;2023-11-21T09:02:23;94476.31;;;9.85;100.00
10946;BME280;5525;42.648;23.368;2023-11-21T09:04:52;94468.97;;;10.32;100.00
10946;BME280;5525;42.648;23.368;2023-11-21T09:07:19;94463.34;;;10.45;100.00
10946;BME280;5525;42.648;23.368;2023-11-21T09:09:46;94461.84;;;10.56;100.00
10946;BME280;5525;42.648;23.368;2023-11-21T09:12:13;94446.59;;;10.31;100.00
10946;BME280;5525;42.648;23.368;2023-11-21T09:14:42;94425.88;;;10.44;100.00
10946;BME280;5525;42.648;23.368;2023-11-21T09:17:10;94429.34;;;10.23;100.00
10946;BME280;5525;42.648;23.368;2023-11-21T09:19:37;94426.31;;;10.25;100.00
10946;BME280;5525;42.648;23.368;2023-11-21T09:22:04;94422.22;;;10.40;100.00
10946;BME280;5525;42.648;23.368;2023-11-21T09:24:31;94419.41;;;10.36;100.00
10946;BME280;5525;42.648;23.368;2023-11-21T09:26:58;94415.94;;;10.56;100.00
10946;BME280;5525;42.648;23.368;2023-11-21T09:29:25;94410.06;;;10.34;100.00
10946;BME280;5525;42.648;23.368;2023-11-21T09:31:54;94406.91;;;10.52;100.00
10946;BME280;5525;42.648;23.368;2023-11-21T09:34:25;94394.69;;;10.87;100.00
10946;BME280;5525;42.648;23.368;2023-11-21T09:36:52;94372.66;;;10.85;100.00
10946;BME280;5525;42.648;23.368;2023-11-21T09:39:19;94374.72;;;11.00;100.00
10946;BME280;5525;42.648;23.368;2023-11-21T09:41:49;94384.88;;;11.15;100.00
10946;BME280;5525;42.648;23.368;2023-11-21T09:44:18;94373.47;;;10.98;100.00
10946;BME280;5525;42.648;23.368;2023-11-21T09:46:49;94364.16;;;11.07;100.00
10946;BME280;5525;42.648;23.368;2023-11-21T09:49:23;94359.59;;;10.55;100.00
10946;BME280;5525;42.648;23.368;2023-11-21T09:51:53;94357.00;;;11.23;100.00
10946;BME280;5525;42.648;23.368;2023-11-21T09:54:21;94348.78;;;11.32;100.00
10946;BME280;5525;42.648;23.368;2023-11-21T09:56:49;94338.88;;;11.36;100.00
10946;BME280;5525;42.648;23.368;2023-11-21T09:59:16;94333.09;;;11.70;100.00
10946;BME280;5525;42.648;23.368;2023-11-21T10:01:44;94326.59;;;11.50;100.00
10946;BME280;5525;42.648;23.368;2023-11-21T10:04:13;94317.06;;;11.77;100.00
10946;BME280;5525;42.648;23.368;2023-11-21T10:06:43;94313.00;;;11.71;100.00
10946;BME280;5525;42.648;23.368;2023-11-21T10:09:12;94316.03;;;11.93;100.00
10946;BME280;5525;42.648;23.368;2023-11-21T10:11:41;94312.09;;;12.43;100.00
10946;BME280;5525;42.648;23.368;2023-11-21T10:14:10;94323.88;;;12.62;100.00
10946;BME280;5525;42.648;23.368;2023-11-21T10:16:40;94312.25;;;12.34;100.00
10946;BME280;5525;42.648;23.368;2023-11-21T10:19:10;94315.38;;;12.76;100.00
10946;BME280;5525;42.648;23.368;2023-11-21T10:21:42;94306.19;;;12.53;100.00
10946;BME280;5525;42.648;23.368;2023-11-21T10:24:09;94296.59;;;12.55;100.00
10946;BME280;5525;42.648;23.368;2023-11-21T10:26:38;94286.84;;;12.66;100.00
10946;BME280;5525;42.648;23.368;2023-11-21T10:29:05;94289.72;;;12.73;100.00
10946;BME280;5525;42.648;23.368;2023-11-21T10:31:33;94282.34;;;12.58;100.00
10946;BME280;5525;42.648;23.368;2023-11-21T10:34:14;94286.53;;;12.83;100.00
10946;BME280;5525;42.648;23.368;2023-11-21T10:36:43;94296.50;;;12.12;100.00
10946;BME280;5525;42.648;23.368;2023-11-21T10:39:14;94292.59;;;12.65;100.00
10946;BME280;5525;42.648;23.368;2023-11-21T10:41:43;94242.78;;;12.54;100.00
10946;BME280;5525;42.648;23.368;2023-11-21T10:44:10;94275.41;;;12.18;100.00
10946;BME280;5525;42.648;23.368;2023-11-21T10:46:40;94269.69;;;11.95;100.00
10946;BME280;5525;42.648;23.368;2023-11-21T10:49:10;94280.81;;;12.18;100.00
10946;BME280;5525;42.648;23.368;2023-11-21T10:51:37;94279.06;;;12.65;100.00
10946;BME280;5525;42.648;23.368;2023-11-21T10:54:11;94272.78;;;12.76;100.00
10946;BME280;5525;42.648;23.368;2023-11-21T10:56:39;94272.75;;;12.33;100.00
10946;BME280;5525;42.648;23.368;2023-11-21T10:59:09;94270.25;;;12.68;100.00
10946;BME280;5525;42.648;23.368;2023-11-21T11:01:40;94265.97;;;12.67;100.00
10946;BME280;5525;42.648;23.368;2023-11-21T11:04:09;94246.97;;;12.51;100.00
10946;BME280;5525;42.648;23.368;2023-11-21T11:06:41;94258.72;;;12.71;100.00
10946;BME280;5525;42.648;23.368;2023-11-21T11:09:08;94260.91;;;12.81;100.00
10946;BME280;5525;42.648;23.368;2023-11-21T11:11:40;94260.28;;;12.72;100.00
10946;BME280;5525;42.648;23.368;2023-11-21T11:14:10;94248.50;;;12.80;100.00
10946;BME280;5525;42.648;23.368;2023-11-21T11:16:39;94250.72;;;12.47;100.00
10946;BME280;5525;42.648;23.368;2023-11-21T11:19:08;94253.72;;;12.57;100.00
10946;BME280;5525;42.648;23.368;2023-11-21T11:21:45;94234.22;;;12.67;100.00
10946;BME280;5525;42.648;23.368;2023-11-21T11:24:36;94225.06;;;12.72;100.00
10946;BME280;5525;42.648;23.368;2023-11-21T11:27:15;94221.13;;;12.69;100.00
10946;BME280;5525;42.648;23.368;2023-11-21T11:29:56;94204.09;;;12.69;100.00
10946;BME280;5525;42.648;23.368;2023-11-21T11:32:37;94214.50;;;12.67;100.00
10946;BME280;5525;42.648;23.368;2023-11-21T11:35:13;94211.00;;;12.66;100.00
10946;BME280;5525;42.648;23.368;2023-11-21T11:37:44;94211.16;;;12.58;100.00
10946;BME280;5525;42.648;23.368;2023-11-21T11:40:11;94205.66;;;12.54;100.00
10946;BME280;5525;42.648;23.368;2023-11-21T11:42:56;94203.41;;;12.72;100.00
10946;BME280;5525;42.648;23.368;2023-11-21T11:45:26;94199.03;;;12.67;100.00
10946;BME280;5525;42.648;23.368;2023-11-21T11:48:00;94203.72;;;12.39;100.00
10946;BME280;5525;42.648;23.368;2023-11-21T11:50:27;94212.81;;;12.47;100.00
10946;BME280;5525;42.648;23.368;2023-11-21T11:52:55;94218.44;;;11.86;100.00
10946;BME280;5525;42.648;23.368;2023-11-21T11:55:24;94231.22;;;11.26;100.00
10946;BME280;5525;42.648;23.368;2023-11-21T11:57:53;94228.63;;;11.05;100.00
10946;BME280;5525;42.648;23.368;2023-11-21T12:00:32;94224.66;;;10.91;100.00
10946;BME280;5525;42.648;23.368;2023-11-21T12:03:03;94209.72;;;11.17;100.00
10946;BME280;5525;42.648;23.368;2023-11-21T12:05:32;94217.00;;;11.41;100.00
10946;BME280;5525;42.648;23.368;2023-11-21T12:08:02;94216.34;;;11.32;100.00
10946;BME280;5525;42.648;23.368;2023-11-21T12:10:31;94221.75;;;11.20;100.00
10946;BME280;5525;42.648;23.368;2023-11-21T12:13:01;94208.25;;;10.96;100.00
10946;BME280;5525;42.648;23.368;2023-11-21T12:15:28;94214.41;;;10.72;100.00
10946;BME280;5525;42.648;23.368;2023-11-21T12:17:57;94228.69;;;10.61;100.00
10946;BME280;5525;42.648;23.368;2023-11-21T12:20:25;94225.84;;;10.57;100.00
10946;BME280;5525;42.648;23.368;2023-11-21T12:22:53;94210.13;;;10.27;100.00
10946;BME280;5525;42.648;23.368;2023-11-21T12:25:21;94233.00;;;10.08;100.00
10946;BME280;5525;42.648;23.368;2023-11-21T12:27:50;94217.56;;;10.30;100.00
10946;BME280;5525;42.648;23.368;2023-11-21T12:30:19;94220.59;;;10.28;100.00
10946;BME280;5525;42.648;23.368;2023-11-21T12:32:48;94216.00;;;10.29;100.00
10946;BME280;5525;42.648;23.368;2023-11-21T12:35:17;94216.88;;;10.33;100.00
10946;BME280;5525;42.648;23.368;2023-11-21T12:37:45;94225.97;;;10.28;100.00
10946;BME280;5525;42.648;23.368;2023-11-21T12:40:15;94228.44;;;10.00;100.00
10946;BME280;5525;42.648;23.368;2023-11-21T12:42:44;94232.44;;;9.94;100.00
10946;BME280;5525;42.648;23.368;2023-11-21T12:45:20;94206.88;;;9.59;100.00
10946;BME280;5525;42.648;23.368;2023-11-21T12:47:49;94224.63;;;9.60;100.00
10946;BME280;5525;42.648;23.368;2023-11-21T12:50:18;94218.91;;;9.82;100.00
10946;BME280;5525;42.648;23.368;2023-11-21T12:52:49;94218.22;;;10.27;100.00
10946;BME280;5525;42.648;23.368;2023-11-21T12:55:18;94213.84;;;10.34;100.00
10946;BME280;5525;42.648;23.368;2023-11-21T12:57:48;94189.03;;;10.41;100.00
10946;BME280;5525;42.648;23.368;2023-11-21T13:00:18;94187.34;;;10.36;100.00
10946;BME280;5525;42.648;23.368;2023-11-21T13:02:56;94191.28;;;9.85;100.00